createdAt,value
2023-04-18T00:00:28.494Z,99777.38
2023-04-18T00:03:30.849Z,99794.03
2023-04-18T00:06:32.910Z,99777.78
2023-04-18T00:09:36.212Z,99778.78
2023-04-18T00:12:39.208Z,99786.94
2023-04-18T00:15:43.927Z,99788.94
2023-04-18T00:18:46.523Z,99784.97
2023-04-18T00:21:49.547Z,99782.31
2023-04-18T00:24:52.740Z,99760.75
2023-04-18T00:27:55.446Z,99786.16
2023-04-18T00:30:57.294Z,99791.47
2023-04-18T00:33:59.426Z,99783.28
2023-04-18T00:37:01.165Z,99781.97
2023-04-18T00:40:05.702Z,99785.94
2023-04-18T00:43:08.584Z,99766.69
2023-04-18T00:46:11.024Z,99779.34
2023-04-18T00:49:13.708Z,99763.53
2023-04-18T00:52:16.634Z,99777.13
2023-04-18T00:55:20.652Z,99764.41
2023-04-18T00:58:24.164Z,99774.47
2023-04-18T01:01:26.296Z,99773.47
2023-04-18T01:04:28.571Z,99781.25
2023-04-18T01:07:31.139Z,99767.00
2023-04-18T01:10:36.150Z,99784.97
2023-04-18T01:13:38.020Z,99782.13
2023-04-18T01:16:40.096Z,99780.47
2023-04-18T01:19:42.751Z,99780.66
2023-04-18T01:22:44.513Z,99785.28
2023-04-18T01:25:49.454Z,99788.81
2023-04-18T01:28:51.387Z,99757.72
2023-04-18T01:31:53.161Z,99778.78
2023-04-18T01:34:55.325Z,99784.09
2023-04-18T01:37:57.985Z,99775.94
2023-04-18T01:41:02.495Z,99778.25
2023-04-18T01:44:04.811Z,99774.09
2023-04-18T01:47:07.279Z,99779.75
2023-04-18T01:50:09.724Z,99757.84
2023-04-18T01:53:12.284Z,99777.59
2023-04-18T01:56:15.474Z,99774.94
2023-04-18T01:59:17.241Z,99782.75
2023-04-18T02:02:19.242Z,99783.09
2023-04-18T02:05:21.515Z,99770.78
2023-04-18T02:08:23.303Z,99781.78
2023-04-18T02:11:26.507Z,99777.09
2023-04-18T02:14:31.350Z,99766.31
2023-04-18T02:17:33.773Z,99775.94
2023-04-18T02:20:36.411Z,99779.06
2023-04-18T02:23:38.219Z,99780.91
2023-04-18T02:26:41.417Z,99779.25
2023-04-18T02:29:44.146Z,99782.56
2023-04-18T02:32:46.071Z,99781.56
2023-04-18T02:35:48.178Z,99775.22
2023-04-18T02:38:49.988Z,99784.69
2023-04-18T02:41:53.557Z,99776.72
2023-04-18T02:44:55.520Z,99779.38
2023-04-18T02:47:57.350Z,99773.56
2023-04-18T02:51:03.454Z,99783.03
2023-04-18T02:54:05.499Z,99771.28
2023-04-18T02:57:08.681Z,99777.53
2023-04-18T03:00:11.788Z,99769.97
2023-04-18T03:03:13.678Z,99787.06
2023-04-18T03:06:15.846Z,99778.78
2023-04-18T03:09:18.195Z,99779.59
2023-04-18T03:12:21.332Z,99796.72
2023-04-18T03:15:23.297Z,99795.69
2023-04-18T03:18:26.151Z,99801.72
2023-04-18T03:21:27.997Z,99809.88
2023-04-18T03:24:30.047Z,99809.22
2023-04-18T03:27:33.306Z,99802.72
2023-04-18T03:30:36.131Z,99811.88
2023-04-18T03:33:39.274Z,99812.06
2023-04-18T03:36:42.093Z,99797.63
2023-04-18T03:39:43.934Z,99804.25
2023-04-18T03:42:47.055Z,99802.09
2023-04-18T03:45:49.334Z,99820.19
2023-04-18T03:48:51.184Z,99812.72
2023-04-18T03:51:54.155Z,99812.56
2023-04-18T03:54:56.054Z,99821.56
2023-04-18T03:57:59.398Z,99796.44
2023-04-18T04:01:01.251Z,99819.91
2023-04-18T04:04:03.369Z,99825.84
2023-04-18T04:07:06.256Z,99825.88
2023-04-18T04:10:08.793Z,99834.00
2023-04-18T04:13:12.308Z,99815.72
2023-04-18T04:16:14.207Z,99826.22
2023-04-18T04:19:16.080Z,99831.00
2023-04-18T04:22:17.988Z,99829.19
2023-04-18T04:25:20.192Z,99834.47
2023-04-18T04:28:23.941Z,99847.28
2023-04-18T04:31:26.159Z,99824.00
2023-04-18T04:34:28.056Z,99848.28
2023-04-18T04:37:29.927Z,99848.09
2023-04-18T04:40:31.754Z,99848.44
2023-04-18T04:43:34.966Z,99856.41
2023-04-18T04:46:39.493Z,99854.25
2023-04-18T04:49:41.261Z,99840.78
2023-04-18T04:52:43.246Z,99852.88
2023-04-18T04:55:45.550Z,99865.72
2023-04-18T04:58:49.256Z,99858.22
2023-04-18T05:01:56.247Z,99858.72
2023-04-18T05:04:58.167Z,99866.19
2023-04-18T05:08:00.971Z,99834.66
2023-04-18T05:11:02.859Z,99853.75
2023-04-18T05:14:06.186Z,99865.22
2023-04-18T05:17:08.817Z,99865.56
2023-04-18T05:20:11.515Z,99867.56
2023-04-18T05:23:13.770Z,99880.03
2023-04-18T05:26:15.711Z,99875.72
2023-04-18T05:29:18.912Z,99873.88
2023-04-18T05:32:22.292Z,99869.53
2023-04-18T05:35:24.133Z,99882.19
2023-04-18T05:38:26.868Z,99880.19
2023-04-18T05:41:28.732Z,99888.97
2023-04-18T05:44:32.156Z,99882.03
2023-04-18T05:47:34.076Z,99876.72
2023-04-18T05:50:36.773Z,99880.19
2023-04-18T05:53:38.622Z,99889.34
2023-04-18T05:56:40.582Z,99883.31
2023-04-18T05:59:44.406Z,99865.19
2023-04-18T06:02:46.658Z,99823.69
2023-04-18T06:05:49.849Z,99816.03
2023-04-18T06:08:51.704Z,99832.06
2023-04-18T06:11:53.570Z,99830.28
2023-04-18T06:14:56.757Z,99825.66
2023-04-18T06:17:58.714Z,99840.22
2023-04-18T06:21:00.598Z,99840.38
2023-04-18T06:24:02.497Z,99845.69
2023-04-18T06:27:05.250Z,99830.59
2023-04-18T06:30:10.722Z,99859.13
2023-04-18T06:33:12.506Z,99904.09
2023-04-18T06:36:14.677Z,99902.31
2023-04-18T06:39:16.506Z,99903.78
2023-04-18T06:42:19.157Z,99900.06
2023-04-18T06:45:24.974Z,99904.69
2023-04-18T06:48:26.872Z,99912.28
2023-04-18T06:51:29.093Z,99912.75
2023-04-18T06:54:30.924Z,99917.69
2023-04-18T06:57:33.557Z,99909.00
2023-04-18T07:00:36.829Z,99905.00
2023-04-18T07:03:39.605Z,99898.31
2023-04-18T07:06:42.706Z,99904.28
2023-04-18T07:09:44.479Z,99883.97
2023-04-18T07:12:47.617Z,99894.13
2023-04-18T07:15:51.362Z,99894.50
2023-04-18T07:18:53.492Z,99899.97
2023-04-18T07:21:56.079Z,99895.47
2023-04-18T07:24:58.552Z,99910.91
2023-04-18T07:28:00.430Z,99903.75
2023-04-18T07:31:04.642Z,99908.91
2023-04-18T07:34:06.497Z,99903.91
2023-04-18T07:37:08.622Z,99920.53
2023-04-18T07:40:11.600Z,99910.25
2023-04-18T07:43:15.152Z,99917.06
2023-04-18T07:46:18.616Z,99910.59
2023-04-18T07:49:20.550Z,99924.91
2023-04-18T07:52:22.538Z,99921.22
2023-04-18T07:55:24.488Z,99932.75
2023-04-18T07:58:26.394Z,99939.06
2023-04-18T08:01:29.702Z,99936.06
2023-04-18T08:04:31.704Z,99935.84
2023-04-18T08:07:34.422Z,99938.34
2023-04-18T08:10:36.902Z,99937.06
2023-04-18T08:13:39.387Z,99921.44
2023-04-18T08:16:42.623Z,99921.75
2023-04-18T08:19:45.694Z,99924.56
2023-04-18T08:23:04.688Z,99936.00
2023-04-18T08:26:08.661Z,99913.25
2023-04-18T08:29:11.877Z,99922.56
2023-04-18T08:32:15.448Z,99942.44
2023-04-18T08:35:17.415Z,99928.31
2023-04-18T08:38:19.529Z,99927.56
2023-04-18T08:41:23.700Z,99945.25
2023-04-18T08:44:25.778Z,99940.75
2023-04-18T08:47:31.206Z,99932.81
2023-04-18T08:50:33.178Z,99943.22
2023-04-18T08:53:35.320Z,99942.81
2023-04-18T08:56:37.580Z,99942.00
2023-04-18T08:59:40.203Z,99925.13
2023-04-18T09:02:44.667Z,99942.00
2023-04-18T09:06:08.406Z,99939.25
2023-04-18T09:09:10.329Z,99945.41
2023-04-18T09:12:14.572Z,99939.88
2023-04-18T09:15:18.954Z,99933.22
2023-04-18T09:18:22.173Z,99939.72
2023-04-18T09:21:24.323Z,99932.91
2023-04-18T09:24:29.333Z,99946.13
2023-04-18T09:27:34.617Z,99937.03
2023-04-18T09:30:39.452Z,99913.81
2023-04-18T09:33:54.166Z,99938.38
2023-04-18T09:37:07.773Z,99946.16
2023-04-18T09:40:18.082Z,99944.22
2023-04-18T09:43:21.028Z,99928.84
2023-04-18T09:46:22.973Z,99909.81
2023-04-18T09:49:27.737Z,99927.19
2023-04-18T09:52:34.932Z,99938.50
2023-04-18T09:55:40.088Z,99892.47
2023-04-18T09:58:43.989Z,99911.00
2023-04-18T10:01:48.495Z,99920.06
2023-04-18T10:04:54.357Z,99906.00
2023-04-18T10:07:57.909Z,99915.63
2023-04-18T10:10:59.785Z,99902.56
2023-04-18T10:14:07.022Z,99900.31
2023-04-18T10:17:09.274Z,99927.94
2023-04-18T10:20:20.519Z,99917.16
2023-04-18T10:23:36.610Z,99919.00
2023-04-18T10:26:47.049Z,99922.88
2023-04-18T10:29:50.715Z,99930.25
2023-04-18T10:32:55.387Z,99916.53
2023-04-18T10:36:05.189Z,99918.16
2023-04-18T10:39:21.555Z,99918.59
2023-04-18T10:43:06.897Z,99928.97
2023-04-18T10:46:23.844Z,99918.59
2023-04-18T10:49:31.112Z,99923.06
2023-04-18T10:52:35.864Z,99901.34
2023-04-18T10:55:43.714Z,99908.00
2023-04-18T10:58:51.033Z,99904.88
2023-04-18T11:01:55.995Z,99884.66
2023-04-18T11:04:59.208Z,99902.13
2023-04-18T11:08:02.398Z,99896.97
2023-04-18T11:11:09.046Z,99895.94
2023-04-18T11:14:10.993Z,99908.34
2023-04-18T11:17:19.743Z,99902.88
2023-04-18T11:20:21.606Z,99894.53
2023-04-18T11:23:25.534Z,99908.19
2023-04-18T11:26:29.069Z,99907.53
2023-04-18T11:29:32.690Z,99911.69
2023-04-18T11:32:35.952Z,99923.31
2023-04-18T11:35:39.678Z,99919.63
2023-04-18T11:38:43.068Z,99924.78
2023-04-18T11:41:50.372Z,99920.84
2023-04-18T11:44:52.870Z,99899.25
2023-04-18T11:47:59.531Z,99909.41
2023-04-18T11:51:01.878Z,99914.28
2023-04-18T11:54:05.301Z,99907.75
2023-04-18T11:57:20.048Z,99910.72
2023-04-18T12:00:32.535Z,99911.38
2023-04-18T12:03:34.660Z,99910.16
2023-04-18T12:06:46.417Z,99899.81
2023-04-18T12:09:52.353Z,99910.44
2023-04-18T12:12:56.529Z,99876.69
2023-04-18T12:16:01.738Z,99903.19
2023-04-18T12:19:03.669Z,99890.97
2023-04-18T12:22:06.811Z,99895.66
2023-04-18T12:25:20.053Z,99884.59
2023-04-18T12:28:26.697Z,99892.69
2023-04-18T12:31:28.932Z,99888.19
2023-04-18T12:34:31.683Z,99895.28
2023-04-18T12:37:33.588Z,99894.00
2023-04-18T12:40:39.112Z,99900.09
2023-04-18T12:43:40.866Z,99890.00
2023-04-18T12:46:42.720Z,99897.31
2023-04-18T12:49:44.728Z,99899.41
2023-04-18T12:52:47.190Z,99895.16
2023-04-18T12:55:51.647Z,99898.25
2023-04-18T12:58:53.453Z,99888.38
2023-04-18T13:01:55.730Z,99885.19
2023-04-18T13:04:58.490Z,99894.66
2023-04-18T13:08:12.635Z,99886.03
2023-04-18T13:11:21.775Z,99900.13
2023-04-18T13:14:23.741Z,99900.91
2023-04-18T13:17:26.220Z,99886.28
2023-04-18T13:20:28.089Z,99882.66
2023-04-18T13:23:29.851Z,99875.13
2023-04-18T13:26:36.051Z,99889.63
2023-04-18T13:29:38.827Z,99874.38
2023-04-18T13:32:41.230Z,99888.47
2023-04-18T13:35:44.753Z,99882.25
2023-04-18T13:38:46.620Z,99905.34
2023-04-18T13:41:49.908Z,99898.34
2023-04-18T13:44:51.977Z,99882.84
2023-04-18T13:47:54.793Z,99886.06
2023-04-18T13:50:57.255Z,99879.97
2023-04-18T13:54:01.199Z,99877.09
2023-04-18T13:57:04.561Z,99881.84
2023-04-18T14:00:08.921Z,99884.53
2023-04-18T14:03:11.571Z,99889.53
2023-04-18T14:06:13.496Z,99890.13
2023-04-18T14:09:16.750Z,99872.34
2023-04-18T14:12:19.966Z,99888.47
2023-04-18T14:15:21.740Z,99883.09
2023-04-18T14:18:24.713Z,99889.09
2023-04-18T14:21:27.959Z,99882.47
2023-04-18T14:24:29.752Z,99873.59
2023-04-18T14:27:33.941Z,99890.97
2023-04-18T14:30:36.402Z,99885.41
2023-04-18T14:33:38.603Z,99889.50
2023-04-18T14:36:40.451Z,99885.78
2023-04-18T14:39:42.287Z,99887.88
2023-04-18T14:42:46.804Z,99874.44
2023-04-18T14:45:48.654Z,99894.69
2023-04-18T14:48:50.976Z,99895.28
2023-04-18T14:51:53.443Z,99877.13
2023-04-18T14:54:55.427Z,99887.84
2023-04-18T14:57:58.582Z,99883.06
2023-04-18T15:01:01.330Z,99877.28
2023-04-18T15:04:04.435Z,99865.50
2023-04-18T15:07:07.703Z,99893.59
2023-04-18T15:10:12.715Z,99887.16
2023-04-18T15:13:16.700Z,99885.66
2023-04-18T15:16:18.532Z,99859.22
2023-04-18T15:19:21.315Z,99875.09
2023-04-18T15:22:23.247Z,99882.31
2023-04-18T15:25:26.152Z,99873.09
2023-04-18T15:28:30.899Z,99855.09
2023-04-18T15:31:32.816Z,99867.94
2023-04-18T15:34:35.393Z,99883.78
2023-04-18T15:37:37.259Z,99883.00
2023-04-18T15:40:39.110Z,99887.69
2023-04-18T15:43:42.897Z,99893.31
2023-04-18T15:46:44.769Z,99891.31
2023-04-18T15:49:47.228Z,99871.28
2023-04-18T15:52:49.167Z,99842.97
2023-04-18T15:55:51.483Z,99904.91
2023-04-18T15:58:57.565Z,99896.06
2023-04-18T16:01:59.526Z,99890.06
2023-04-18T16:05:02.218Z,99901.47
2023-04-18T16:08:04.157Z,99895.94
2023-04-18T16:11:06.975Z,99904.88
2023-04-18T16:14:10.605Z,99914.03
2023-04-18T16:17:12.381Z,99905.25
2023-04-18T16:20:15.438Z,99903.22
2023-04-18T16:23:17.260Z,99912.13
2023-04-18T16:26:19.115Z,99912.63
2023-04-18T16:29:22.670Z,99910.41
2023-04-18T16:32:24.592Z,99901.47
2023-04-18T16:35:26.640Z,99908.56
2023-04-18T16:38:28.492Z,99905.13
2023-04-18T16:41:30.958Z,99915.81
2023-04-18T16:44:34.568Z,99918.50
2023-04-18T16:47:36.864Z,99908.47
2023-04-18T16:50:38.679Z,99902.16
2023-04-18T16:53:41.175Z,99907.44
2023-04-18T16:56:44.829Z,99913.25
2023-04-18T16:59:50.576Z,99921.09
2023-04-18T17:02:53.359Z,99919.75
2023-04-18T17:05:56.195Z,99917.13
2023-04-18T17:08:59.073Z,99916.34
2023-04-18T17:12:01.984Z,99925.59
2023-04-18T17:15:07.036Z,99926.41
2023-04-18T17:18:09.308Z,99906.22
2023-04-18T17:21:12.663Z,99909.22
2023-04-18T17:24:15.261Z,99934.72
2023-04-18T17:27:18.325Z,99935.00
2023-04-18T17:30:23.073Z,99924.25
2023-04-18T17:33:25.186Z,99940.28
2023-04-18T17:36:29.480Z,99947.03
2023-04-18T17:39:33.072Z,99943.41
2023-04-18T17:42:35.893Z,99950.25
2023-04-18T17:45:41.666Z,99948.13
2023-04-18T17:48:47.296Z,99956.81
2023-04-18T17:51:52.980Z,99965.81
2023-04-18T17:54:55.851Z,99965.31
2023-04-18T17:57:58.521Z,99975.44
2023-04-18T18:01:04.308Z,99967.81
2023-04-18T18:04:08.800Z,99955.50
2023-04-18T18:07:11.916Z,99964.81
2023-04-18T18:10:16.117Z,99975.47
2023-04-18T18:13:20.882Z,99981.78
2023-04-18T18:16:25.264Z,99985.75
2023-04-18T18:19:29.434Z,99974.13
2023-04-18T18:22:31.708Z,99976.28
2023-04-18T18:25:37.065Z,99988.75
2023-04-18T18:28:39.004Z,99974.97
2023-04-18T18:31:43.975Z,99972.78
2023-04-18T18:34:48.021Z,99981.09
2023-04-18T18:37:51.545Z,99989.25
2023-04-18T18:40:54.234Z,99986.38
2023-04-18T18:43:56.954Z,99973.28
2023-04-18T18:47:01.754Z,99981.63
2023-04-18T18:50:07.959Z,99949.97
2023-04-18T18:53:12.243Z,99990.84
2023-04-18T18:56:16.705Z,99947.81
2023-04-18T18:59:18.655Z,99995.97
2023-04-18T19:02:22.584Z,100003.66
2023-04-18T19:05:25.264Z,100012.56
2023-04-18T19:08:27.948Z,100006.25
2023-04-18T19:11:30.345Z,100000.16
2023-04-18T19:14:35.761Z,100023.34
2023-04-18T19:17:39.584Z,100036.00
2023-04-18T19:20:43.047Z,100027.66
2023-04-18T19:23:45.822Z,100037.63
2023-04-18T19:26:49.265Z,100037.00
2023-04-18T19:29:52.200Z,100043.31
2023-04-18T19:32:56.518Z,100055.94
2023-04-18T19:36:00.498Z,100014.88
2023-04-18T19:39:03.377Z,100046.78
2023-04-18T19:42:06.245Z,100045.78
2023-04-18T19:45:12.695Z,100046.44
2023-04-18T19:48:17.101Z,100045.94
2023-04-18T19:51:22.158Z,100052.78
2023-04-18T19:54:24.974Z,100050.63
2023-04-18T19:57:29.070Z,100048.94
2023-04-18T20:00:31.926Z,100052.06
2023-04-18T20:03:35.619Z,100076.41
2023-04-18T20:06:38.258Z,100058.13
2023-04-18T20:09:40.577Z,100077.72
2023-04-18T20:12:43.860Z,100071.56
2023-04-18T20:15:46.920Z,100079.88
2023-04-18T20:18:55.062Z,100061.25
2023-04-18T20:21:58.531Z,100066.09
2023-04-18T20:25:01.704Z,100077.06
2023-04-18T20:28:04.924Z,100073.44
2023-04-18T20:31:08.118Z,100070.25
2023-04-18T20:34:11.882Z,100070.91
2023-04-18T20:37:16.521Z,100071.75
2023-04-18T20:40:18.694Z,100076.59
2023-04-18T20:43:20.788Z,100076.56
2023-04-18T20:46:25.024Z,100081.34
2023-04-18T20:49:29.730Z,100087.84
2023-04-18T20:52:32.989Z,100076.03
2023-04-18T20:55:35.172Z,100081.72
2023-04-18T20:58:36.955Z,100077.41
2023-04-18T21:01:38.753Z,100067.72
2023-04-18T21:04:42.137Z,100077.25
2023-04-18T21:07:45.837Z,100085.22
2023-04-18T21:10:47.805Z,100074.59
2023-04-18T21:13:49.691Z,100065.75
2023-04-18T21:16:51.511Z,100066.91
2023-04-18T21:19:55.917Z,100063.59
2023-04-18T21:22:58.497Z,100076.41
2023-04-18T21:26:00.687Z,100071.72
2023-04-18T21:29:06.645Z,100060.06
2023-04-18T21:32:09.479Z,100069.19
2023-04-18T21:35:12.883Z,100067.69
2023-04-18T21:38:15.415Z,100052.38
2023-04-18T21:41:17.249Z,100052.91
2023-04-18T21:44:19.704Z,100070.03
2023-04-18T21:47:21.831Z,100065.22
2023-04-18T21:50:25.860Z,100069.03
2023-04-18T21:53:27.674Z,100073.53
2023-04-18T21:56:29.456Z,100068.03
2023-04-18T21:59:31.348Z,100056.41
2023-04-18T22:02:33.211Z,100060.38
2023-04-18T22:05:39.004Z,100053.03
2023-04-18T22:08:42.067Z,100050.25
2023-04-18T22:11:43.933Z,100041.38
2023-04-18T22:14:48.460Z,100045.03
2023-04-18T22:17:50.612Z,100046.38
2023-04-18T22:20:54.911Z,100048.06
2023-04-18T22:27:26.309Z,100045.38
2023-04-18T22:30:28.558Z,100046.72
2023-04-18T22:33:30.511Z,100035.41
2023-04-18T22:36:34.690Z,100038.06
2023-04-18T22:39:36.492Z,100029.06
2023-04-18T22:42:38.954Z,100032.09
2023-04-18T22:45:41.312Z,100029.44
2023-04-18T22:48:44.871Z,100027.31
2023-04-18T22:51:48.629Z,100024.25
2023-04-18T22:54:50.667Z,100004.31
2023-04-18T22:57:52.463Z,100015.59
2023-04-18T23:00:54.290Z,100004.47
2023-04-18T23:03:56.579Z,100004.63
2023-04-18T23:07:00.622Z,100007.81
2023-04-18T23:10:04.824Z,100005.78
2023-04-18T23:13:06.612Z,100011.50
2023-04-18T23:16:08.682Z,99999.00
2023-04-18T23:19:10.712Z,99975.38
2023-04-18T23:22:14.691Z,99993.34
2023-04-18T23:25:16.633Z,99992.69
2023-04-18T23:28:19.181Z,99982.03
2023-04-18T23:31:22.062Z,99978.53
2023-04-18T23:34:24.223Z,99963.03
2023-04-18T23:37:27.468Z,99971.50
2023-04-18T23:40:30.320Z,99972.69
2023-04-18T23:43:32.273Z,99960.72
2023-04-18T23:46:36.499Z,99936.00
2023-04-18T23:49:38.624Z,99961.91
2023-04-18T23:52:42.571Z,99951.75
2023-04-18T23:55:44.473Z,99936.94
2023-04-18T23:58:47.038Z,99952.09
